sensor_id;sensor_type;location;lat;lon;timestamp;P1;durP1;ratioP1;P2;durP2;ratioP2
27566;SDS011;15006;48.584;9.186;2022-10-16T00:01:25;3.13;;;2.25;;
27566;SDS011;15006;48.584;9.186;2022-10-16T00:03:55;2.30;;;2.00;;
27566;SDS011;15006;48.584;9.186;2022-10-16T00:06:23;2.55;;;2.35;;
27566;SDS011;15006;48.584;9.186;2022-10-16T00:08:50;4.93;;;2.50;;
27566;SDS011;15006;48.584;9.186;2022-10-16T00:11:19;2.50;;;2.30;;
27566;SDS011;15006;48.584;9.186;2022-10-16T00:13:47;2.50;;;2.28;;
27566;SDS011;15006;48.584;9.186;2022-10-16T00:16:14;2.40;;;1.92;;
27566;SDS011;15006;48.584;9.186;2022-10-16T00:18:41;2.17;;;1.90;;
27566;SDS011;15006;48.584;9.186;2022-10-16T00:21:14;2.22;;;2.10;;
27566;SDS011;15006;48.584;9.186;2022-10-16T00:24:05;2.55;;;1.83;;
27566;SDS011;15006;48.584;9.186;2022-10-16T00:26:34;1.50;;;1.40;;
27566;SDS011;15006;48.584;9.186;2022-10-16T00:29:02;1.73;;;1.63;;
27566;SDS011;15006;48.584;9.186;2022-10-16T00:31:29;3.17;;;1.40;;
27566;SDS011;15006;48.584;9.186;2022-10-16T00:33:56;2.90;;;1.60;;
27566;SDS011;15006;48.584;9.186;2022-10-16T00:36:22;2.08;;;1.60;;
27566;SDS011;15006;48.584;9.186;2022-10-16T00:38:51;1.55;;;1.50;;
27566;SDS011;15006;48.584;9.186;2022-10-16T00:41:23;2.05;;;1.50;;
27566;SDS011;15006;48.584;9.186;2022-10-16T00:43:51;5.57;;;1.42;;
27566;SDS011;15006;48.584;9.186;2022-10-16T00:46:23;1.50;;;1.40;;
27566;SDS011;15006;48.584;9.186;2022-10-16T00:49:06;1.70;;;1.55;;
27566;SDS011;15006;48.584;9.186;2022-10-16T00:51:37;1.60;;;1.50;;
27566;SDS011;15006;48.584;9.186;2022-10-16T00:54:12;2.85;;;1.50;;
27566;SDS011;15006;48.584;9.186;2022-10-16T00:56:44;1.60;;;1.50;;
27566;SDS011;15006;48.584;9.186;2022-10-16T01:02:08;1.20;;;1.20;;
27566;SDS011;15006;48.584;9.186;2022-10-16T01:04:44;2.22;;;1.30;;
27566;SDS011;15006;48.584;9.186;2022-10-16T01:15:42;2.03;;;1.40;;
27566;SDS011;15006;48.584;9.186;2022-10-16T01:18:39;1.92;;;1.80;;
27566;SDS011;15006;48.584;9.186;2022-10-16T01:21:26;2.33;;;1.17;;
27566;SDS011;15006;48.584;9.186;2022-10-16T01:26:48;3.08;;;1.48;;
27566;SDS011;15006;48.584;9.186;2022-10-16T01:29:52;6.75;;;1.25;;
27566;SDS011;15006;48.584;9.186;2022-10-16T01:32:49;1.30;;;1.20;;
27566;SDS011;15006;48.584;9.186;2022-10-16T01:35:27;1.17;;;1.00;;
27566;SDS011;15006;48.584;9.186;2022-10-16T01:38:19;6.50;;;1.50;;
27566;SDS011;15006;48.584;9.186;2022-10-16T01:41:00;2.45;;;1.75;;
27566;SDS011;15006;48.584;9.186;2022-10-16T01:43:42;3.50;;;1.70;;
27566;SDS011;15006;48.584;9.186;2022-10-16T01:46:14;3.78;;;1.85;;
27566;SDS011;15006;48.584;9.186;2022-10-16T01:48:44;1.25;;;1.15;;
27566;SDS011;15006;48.584;9.186;2022-10-16T01:51:12;4.25;;;1.40;;
27566;SDS011;15006;48.584;9.186;2022-10-16T01:53:41;4.18;;;1.40;;
27566;SDS011;15006;48.584;9.186;2022-10-16T01:56:12;2.67;;;1.42;;
27566;SDS011;15006;48.584;9.186;2022-10-16T01:58:57;2.07;;;1.73;;
27566;SDS011;15006;48.584;9.186;2022-10-16T02:01:29;1.60;;;1.50;;
27566;SDS011;15006;48.584;9.186;2022-10-16T02:03:59;1.60;;;1.50;;
27566;SDS011;15006;48.584;9.186;2022-10-16T02:06:34;2.42;;;1.73;;
27566;SDS011;15006;48.584;9.186;2022-10-16T02:09:01;1.60;;;1.50;;
27566;SDS011;15006;48.584;9.186;2022-10-16T02:11:27;1.40;;;1.30;;
27566;SDS011;15006;48.584;9.186;2022-10-16T02:13:55;3.60;;;1.75;;
27566;SDS011;15006;48.584;9.186;2022-10-16T02:16:38;1.92;;;1.80;;
27566;SDS011;15006;48.584;9.186;2022-10-16T02:19:06;1.63;;;1.52;;
27566;SDS011;15006;48.584;9.186;2022-10-16T02:21:43;1.60;;;1.50;;
27566;SDS011;15006;48.584;9.186;2022-10-16T02:30:19;1.80;;;1.70;;
27566;SDS011;15006;48.584;9.186;2022-10-16T02:32:54;2.50;;;1.42;;
27566;SDS011;15006;48.584;9.186;2022-10-16T02:35:22;1.58;;;1.42;;
27566;SDS011;15006;48.584;9.186;2022-10-16T02:37:49;1.60;;;1.50;;
27566;SDS011;15006;48.584;9.186;2022-10-16T02:40:17;1.38;;;1.27;;
27566;SDS011;15006;48.584;9.186;2022-10-16T02:42:44;1.05;;;1.05;;
27566;SDS011;15006;48.584;9.186;2022-10-16T02:45:10;1.30;;;1.20;;
27566;SDS011;15006;48.584;9.186;2022-10-16T02:47:37;4.47;;;1.40;;
27566;SDS011;15006;48.584;9.186;2022-10-16T02:50:03;1.58;;;1.35;;
27566;SDS011;15006;48.584;9.186;2022-10-16T02:52:29;1.35;;;1.20;;
27566;SDS011;15006;48.584;9.186;2022-10-16T02:54:55;2.20;;;1.25;;
27566;SDS011;15006;48.584;9.186;2022-10-16T02:57:21;3.63;;;1.15;;
27566;SDS011;15006;48.584;9.186;2022-10-16T02:59:47;1.88;;;1.00;;
27566;SDS011;15006;48.584;9.186;2022-10-16T03:02:13;1.00;;;1.00;;
27566;SDS011;15006;48.584;9.186;2022-10-16T03:04:39;1.92;;;1.35;;
27566;SDS011;15006;48.584;9.186;2022-10-16T03:07:05;1.33;;;1.23;;
27566;SDS011;15006;48.584;9.186;2022-10-16T03:09:32;2.65;;;0.88;;
27566;SDS011;15006;48.584;9.186;2022-10-16T03:11:59;2.78;;;1.20;;
27566;SDS011;15006;48.584;9.186;2022-10-16T03:14:25;1.65;;;0.90;;
27566;SDS011;15006;48.584;9.186;2022-10-16T03:16:51;1.20;;;1.10;;
27566;SDS011;15006;48.584;9.186;2022-10-16T03:19:17;2.00;;;1.10;;
27566;SDS011;15006;48.584;9.186;2022-10-16T03:21:43;0.98;;;0.98;;
27566;SDS011;15006;48.584;9.186;2022-10-16T03:24:10;4.50;;;1.20;;
27566;SDS011;15006;48.584;9.186;2022-10-16T03:26:36;1.23;;;1.00;;
27566;SDS011;15006;48.584;9.186;2022-10-16T03:29:02;6.05;;;1.25;;
27566;SDS011;15006;48.584;9.186;2022-10-16T03:31:29;1.13;;;1.10;;
27566;SDS011;15006;48.584;9.186;2022-10-16T03:33:56;2.72;;;0.95;;
27566;SDS011;15006;48.584;9.186;2022-10-16T03:36:22;2.70;;;1.00;;
27566;SDS011;15006;48.584;9.186;2022-10-16T03:38:48;1.05;;;1.05;;
27566;SDS011;15006;48.584;9.186;2022-10-16T03:41:14;0.88;;;0.88;;
27566;SDS011;15006;48.584;9.186;2022-10-16T03:43:40;1.83;;;0.95;;
27566;SDS011;15006;48.584;9.186;2022-10-16T03:46:06;2.15;;;0.90;;
27566;SDS011;15006;48.584;9.186;2022-10-16T03:48:32;3.70;;;0.90;;
27566;SDS011;15006;48.584;9.186;2022-10-16T03:50:58;0.90;;;0.90;;
27566;SDS011;15006;48.584;9.186;2022-10-16T03:53:24;3.35;;;0.93;;
27566;SDS011;15006;48.584;9.186;2022-10-16T03:55:50;5.07;;;1.05;;
27566;SDS011;15006;48.584;9.186;2022-10-16T03:58:17;1.77;;;1.00;;
27566;SDS011;15006;48.584;9.186;2022-10-16T04:00:43;1.13;;;1.08;;
27566;SDS011;15006;48.584;9.186;2022-10-16T04:03:11;2.67;;;1.08;;
27566;SDS011;15006;48.584;9.186;2022-10-16T04:05:37;3.72;;;1.30;;
27566;SDS011;15006;48.584;9.186;2022-10-16T04:08:04;1.60;;;0.98;;
27566;SDS011;15006;48.584;9.186;2022-10-16T04:10:30;6.13;;;1.20;;
27566;SDS011;15006;48.584;9.186;2022-10-16T04:12:56;0.90;;;0.90;;
27566;SDS011;15006;48.584;9.186;2022-10-16T04:15:23;2.83;;;1.00;;
27566;SDS011;15006;48.584;9.186;2022-10-16T04:17:50;2.83;;;0.98;;
27566;SDS011;15006;48.584;9.186;2022-10-16T04:20:16;1.13;;;1.10;;
27566;SDS011;15006;48.584;9.186;2022-10-16T04:22:43;0.93;;;0.77;;
27566;SDS011;15006;48.584;9.186;2022-10-16T04:25:09;1.52;;;1.23;;
27566;SDS011;15006;48.584;9.186;2022-10-16T04:27:37;1.30;;;1.20;;
27566;SDS011;15006;48.584;9.186;2022-10-16T04:30:04;3.85;;;1.70;;
27566;SDS011;15006;48.584;9.186;2022-10-16T04:32:30;1.65;;;1.58;;
27566;SDS011;15006;48.584;9.186;2022-10-16T04:34:56;2.00;;;1.88;;
27566;SDS011;15006;48.584;9.186;2022-10-16T04:37:23;2.58;;;1.55;;
27566;SDS011;15006;48.584;9.186;2022-10-16T04:39:51;1.60;;;1.50;;
27566;SDS011;15006;48.584;9.186;2022-10-16T04:42:18;0.90;;;0.90;;
27566;SDS011;15006;48.584;9.186;2022-10-16T04:44:45;0.73;;;0.73;;
27566;SDS011;15006;48.584;9.186;2022-10-16T04:47:10;1.17;;;1.10;;
27566;SDS011;15006;48.584;9.186;2022-10-16T04:49:37;2.55;;;1.20;;
27566;SDS011;15006;48.584;9.186;2022-10-16T04:52:03;0.90;;;0.90;;
27566;SDS011;15006;48.584;9.186;2022-10-16T04:54:30;4.60;;;1.27;;
27566;SDS011;15006;48.584;9.186;2022-10-16T04:56:56;1.58;;;1.20;;
27566;SDS011;15006;48.584;9.186;2022-10-16T04:59:22;1.08;;;1.08;;
27566;SDS011;15006;48.584;9.186;2022-10-16T05:01:49;0.85;;;0.85;;
27566;SDS011;15006;48.584;9.186;2022-10-16T05:04:15;5.03;;;1.48;;
27566;SDS011;15006;48.584;9.186;2022-10-16T05:06:41;1.10;;;1.10;;
27566;SDS011;15006;48.584;9.186;2022-10-16T05:09:07;0.77;;;0.77;;
27566;SDS011;15006;48.584;9.186;2022-10-16T05:11:34;1.50;;;0.90;;
27566;SDS011;15006;48.584;9.186;2022-10-16T05:14:00;1.75;;;1.65;;
27566;SDS011;15006;48.584;9.186;2022-10-16T05:16:27;3.28;;;2.40;;
27566;SDS011;15006;48.584;9.186;2022-10-16T05:18:53;4.65;;;4.32;;
27566;SDS011;15006;48.584;9.186;2022-10-16T05:21:20;4.63;;;4.43;;
27566;SDS011;15006;48.584;9.186;2022-10-16T05:23:46;3.30;;;3.20;;
27566;SDS011;15006;48.584;9.186;2022-10-16T05:26:12;6.65;;;3.75;;
27566;SDS011;15006;48.584;9.186;2022-10-16T05:28:38;2.90;;;2.45;;
27566;SDS011;15006;48.584;9.186;2022-10-16T05:31:05;3.97;;;2.28;;
27566;SDS011;15006;48.584;9.186;2022-10-16T05:33:32;1.70;;;1.40;;
27566;SDS011;15006;48.584;9.186;2022-10-16T05:36:02;3.22;;;1.00;;
27566;SDS011;15006;48.584;9.186;2022-10-16T05:38:30;1.15;;;1.15;;
27566;SDS011;15006;48.584;9.186;2022-10-16T05:40:56;1.52;;;1.10;;
27566;SDS011;15006;48.584;9.186;2022-10-16T05:43:22;3.70;;;1.20;;
27566;SDS011;15006;48.584;9.186;2022-10-16T05:45:58;1.33;;;1.27;;
27566;SDS011;15006;48.584;9.186;2022-10-16T05:48:27;1.10;;;1.00;;
27566;SDS011;15006;48.584;9.186;2022-10-16T05:51:12;1.48;;;1.10;;
27566;SDS011;15006;48.584;9.186;2022-10-16T05:53:40;1.00;;;1.00;;
27566;SDS011;15006;48.584;9.186;2022-10-16T05:56:08;1.55;;;1.38;;
27566;SDS011;15006;48.584;9.186;2022-10-16T05:58:36;2.03;;;1.20;;
27566;SDS011;15006;48.584;9.186;2022-10-16T06:01:12;1.48;;;1.38;;
27566;SDS011;15006;48.584;9.186;2022-10-16T06:03:41;1.38;;;1.30;;
27566;SDS011;15006;48.584;9.186;2022-10-16T06:06:09;4.93;;;2.05;;
27566;SDS011;15006;48.584;9.186;2022-10-16T06:08:43;1.20;;;1.20;;
27566;SDS011;15006;48.584;9.186;2022-10-16T06:11:14;3.78;;;1.80;;
27566;SDS011;15006;48.584;9.186;2022-10-16T06:13:42;2.47;;;2.30;;
27566;SDS011;15006;48.584;9.186;2022-10-16T06:16:11;2.47;;;2.28;;
27566;SDS011;15006;48.584;9.186;2022-10-16T06:18:38;2.45;;;1.95;;
27566;SDS011;15006;48.584;9.186;2022-10-16T06:21:11;2.97;;;1.92;;
27566;SDS011;15006;48.584;9.186;2022-10-16T06:23:42;3.15;;;2.15;;
27566;SDS011;15006;48.584;9.186;2022-10-16T06:26:08;2.42;;;2.33;;
27566;SDS011;15006;48.584;9.186;2022-10-16T06:28:37;2.50;;;2.33;;
27566;SDS011;15006;48.584;9.186;2022-10-16T06:31:04;2.20;;;2.08;;
27566;SDS011;15006;48.584;9.186;2022-10-16T06:33:31;5.28;;;2.25;;
27566;SDS011;15006;48.584;9.186;2022-10-16T06:36:05;2.88;;;2.08;;
27566;SDS011;15006;48.584;9.186;2022-10-16T06:38:41;5.70;;;1.90;;
27566;SDS011;15006;48.584;9.186;2022-10-16T06:41:07;2.08;;;1.88;;
27566;SDS011;15006;48.584;9.186;2022-10-16T06:43:37;1.65;;;1.55;;
27566;SDS011;15006;48.584;9.186;2022-10-16T06:46:04;1.73;;;1.63;;
27566;SDS011;15006;48.584;9.186;2022-10-16T06:48:35;1.17;;;1.17;;
27566;SDS011;15006;48.584;9.186;2022-10-16T06:51:06;3.13;;;1.20;;
27566;SDS011;15006;48.584;9.186;2022-10-16T06:53:45;2.88;;;1.40;;
27566;SDS011;15006;48.584;9.186;2022-10-16T06:56:24;1.00;;;1.00;;
27566;SDS011;15006;48.584;9.186;2022-10-16T06:58:52;1.10;;;0.98;;
27566;SDS011;15006;48.584;9.186;2022-10-16T07:01:20;1.05;;;0.95;;
27566;SDS011;15006;48.584;9.186;2022-10-16T07:03:49;0.90;;;0.90;;
27566;SDS011;15006;48.584;9.186;2022-10-16T07:06:16;1.13;;;0.93;;
27566;SDS011;15006;48.584;9.186;2022-10-16T07:08:45;2.60;;;0.90;;
27566;SDS011;15006;48.584;9.186;2022-10-16T07:11:14;0.90;;;0.90;;
27566;SDS011;15006;48.584;9.186;2022-10-16T07:13:43;1.10;;;1.10;;
27566;SDS011;15006;48.584;9.186;2022-10-16T07:16:11;2.08;;;1.95;;
27566;SDS011;15006;48.584;9.186;2022-10-16T07:18:40;8.85;;;3.88;;
27566;SDS011;15006;48.584;9.186;2022-10-16T07:21:11;4.15;;;3.90;;
27566;SDS011;15006;48.584;9.186;2022-10-16T07:23:42;3.00;;;2.80;;
27566;SDS011;15006;48.584;9.186;2022-10-16T07:26:09;2.88;;;2.67;;
27566;SDS011;15006;48.584;9.186;2022-10-16T07:28:36;3.88;;;2.85;;
27566;SDS011;15006;48.584;9.186;2022-10-16T07:31:07;2.30;;;2.20;;
27566;SDS011;15006;48.584;9.186;2022-10-16T07:33:37;2.88;;;1.45;;
27566;SDS011;15006;48.584;9.186;2022-10-16T07:36:04;2.58;;;1.23;;
27566;SDS011;15006;48.584;9.186;2022-10-16T07:38:31;1.50;;;1.40;;
27566;SDS011;15006;48.584;9.186;2022-10-16T07:41:05;3.80;;;1.30;;
27566;SDS011;15006;48.584;9.186;2022-10-16T07:43:34;1.70;;;1.35;;
27566;SDS011;15006;48.584;9.186;2022-10-16T07:46:00;0.98;;;0.98;;
27566;SDS011;15006;48.584;9.186;2022-10-16T07:48:28;1.45;;;1.17;;
27566;SDS011;15006;48.584;9.186;2022-10-16T07:50:57;1.83;;;1.13;;
27566;SDS011;15006;48.584;9.186;2022-10-16T07:53:24;1.20;;;1.20;;
27566;SDS011;15006;48.584;9.186;2022-10-16T07:55:51;1.75;;;0.95;;
27566;SDS011;15006;48.584;9.186;2022-10-16T07:58:17;1.88;;;0.90;;
27566;SDS011;15006;48.584;9.186;2022-10-16T08:00:42;1.30;;;0.80;;
27566;SDS011;15006;48.584;9.186;2022-10-16T08:03:08;3.95;;;1.00;;
27566;SDS011;15006;48.584;9.186;2022-10-16T08:05:34;0.90;;;0.90;;
27566;SDS011;15006;48.584;9.186;2022-10-16T08:08:01;2.22;;;1.05;;
27566;SDS011;15006;48.584;9.186;2022-10-16T08:10:28;0.73;;;0.73;;
27566;SDS011;15006;48.584;9.186;2022-10-16T08:12:54;0.88;;;0.88;;
27566;SDS011;15006;48.584;9.186;2022-10-16T08:15:21;2.80;;;1.10;;
27566;SDS011;15006;48.584;9.186;2022-10-16T08:18:00;0.90;;;0.88;;
27566;SDS011;15006;48.584;9.186;2022-10-16T08:20:29;3.97;;;0.88;;
27566;SDS011;15006;48.584;9.186;2022-10-16T08:22:58;0.82;;;0.80;;
27566;SDS011;15006;48.584;9.186;2022-10-16T08:25:26;1.25;;;0.77;;
27566;SDS011;15006;48.584;9.186;2022-10-16T08:27:53;1.58;;;0.88;;
27566;SDS011;15006;48.584;9.186;2022-10-16T08:30:19;0.90;;;0.90;;
27566;SDS011;15006;48.584;9.186;2022-10-16T08:32:47;3.65;;;1.00;;
27566;SDS011;15006;48.584;9.186;2022-10-16T08:35:13;5.30;;;0.98;;
27566;SDS011;15006;48.584;9.186;2022-10-16T08:37:40;2.47;;;1.30;;
27566;SDS011;15006;48.584;9.186;2022-10-16T08:40:29;2.55;;;1.30;;
27566;SDS011;15006;48.584;9.186;2022-10-16T08:46:13;2.72;;;1.20;;
27566;SDS011;15006;48.584;9.186;2022-10-16T08:48:57;4.23;;;1.33;;
27566;SDS011;15006;48.584;9.186;2022-10-16T08:51:25;3.13;;;1.20;;
27566;SDS011;15006;48.584;9.186;2022-10-16T08:54:40;2.28;;;1.17;;
27566;SDS011;15006;48.584;9.186;2022-10-16T08:57:14;1.20;;;1.20;;
27566;SDS011;15006;48.584;9.186;2022-10-16T08:59:45;1.10;;;1.10;;
27566;SDS011;15006;48.584;9.186;2022-10-16T09:02:17;1.77;;;1.08;;
27566;SDS011;15006;48.584;9.186;2022-10-16T09:08:03;1.20;;;1.00;;
27566;SDS011;15006;48.584;9.186;2022-10-16T09:11:01;0.90;;;0.90;;
27566;SDS011;15006;48.584;9.186;2022-10-16T09:14:14;2.88;;;1.00;;
27566;SDS011;15006;48.584;9.186;2022-10-16T09:17:14;3.53;;;0.93;;
27566;SDS011;15006;48.584;9.186;2022-10-16T09:22:47;0.95;;;0.95;;
27566;SDS011;15006;48.584;9.186;2022-10-16T09:25:14;2.60;;;0.88;;
27566;SDS011;15006;48.584;9.186;2022-10-16T09:27:45;1.00;;;0.70;;
27566;SDS011;15006;48.584;9.186;2022-10-16T09:30:15;1.05;;;0.80;;
27566;SDS011;15006;48.584;9.186;2022-10-16T09:32:44;0.80;;;0.80;;
27566;SDS011;15006;48.584;9.186;2022-10-16T09:35:15;1.00;;;1.00;;
27566;SDS011;15006;48.584;9.186;2022-10-16T09:37:49;1.52;;;0.80;;
27566;SDS011;15006;48.584;9.186;2022-10-16T09:40:24;0.88;;;0.88;;
27566;SDS011;15006;48.584;9.186;2022-10-16T09:45:56;1.75;;;0.95;;
27566;SDS011;15006;48.584;9.186;2022-10-16T09:48:39;0.80;;;0.77;;
27566;SDS011;15006;48.584;9.186;2022-10-16T09:51:31;5.85;;;0.90;;
27566;SDS011;15006;48.584;9.186;2022-10-16T09:54:12;1.13;;;1.02;;
27566;SDS011;15006;48.584;9.186;2022-10-16T09:56:46;2.70;;;1.20;;
27566;SDS011;15006;48.584;9.186;2022-10-16T09:59:20;1.83;;;0.95;;
27566;SDS011;15006;48.584;9.186;2022-10-16T10:01:55;1.10;;;1.10;;
27566;SDS011;15006;48.584;9.186;2022-10-16T10:04:23;0.80;;;0.80;;
27566;SDS011;15006;48.584;9.186;2022-10-16T10:09:24;1.70;;;1.20;;
27566;SDS011;15006;48.584;9.186;2022-10-16T10:12:03;1.02;;;0.88;;
27566;SDS011;15006;48.584;9.186;2022-10-16T10:14:44;2.08;;;0.80;;
27566;SDS011;15006;48.584;9.186;2022-10-16T10:22:22;2.08;;;1.00;;
27566;SDS011;15006;48.584;9.186;2022-10-16T10:30:16;0.95;;;0.82;;
27566;SDS011;15006;48.584;9.186;2022-10-16T10:33:34;3.15;;;0.88;;
27566;SDS011;15006;48.584;9.186;2022-10-16T10:59:00;0.60;;;0.60;;
27566;SDS011;15006;48.584;9.186;2022-10-16T11:02:19;2.88;;;0.90;;
27566;SDS011;15006;48.584;9.186;2022-10-16T11:08:00;0.68;;;0.60;;
27566;SDS011;15006;48.584;9.186;2022-10-16T11:11:04;1.10;;;0.40;;
27566;SDS011;15006;48.584;9.186;2022-10-16T11:14:06;0.50;;;0.45;;
27566;SDS011;15006;48.584;9.186;2022-10-16T11:28:02;2.15;;;0.50;;
27566;SDS011;15006;48.584;9.186;2022-10-16T11:30:50;4.18;;;0.40;;
27566;SDS011;15006;48.584;9.186;2022-10-16T11:33:29;0.40;;;0.30;;
27566;SDS011;15006;48.584;9.186;2022-10-16T11:38:53;1.42;;;0.40;;
27566;SDS011;15006;48.584;9.186;2022-10-16T11:47:54;1.65;;;0.50;;
27566;SDS011;15006;48.584;9.186;2022-10-16T11:50:34;1.05;;;0.40;;
27566;SDS011;15006;48.584;9.186;2022-10-16T11:56:13;0.63;;;0.40;;
27566;SDS011;15006;48.584;9.186;2022-10-16T11:58:52;2.28;;;0.38;;
27566;SDS011;15006;48.584;9.186;2022-10-16T12:01:24;1.98;;;0.47;;
27566;SDS011;15006;48.584;9.186;2022-10-16T12:06:37;1.80;;;0.70;;
27566;SDS011;15006;48.584;9.186;2022-10-16T12:09:26;4.90;;;0.55;;
27566;SDS011;15006;48.584;9.186;2022-10-16T12:11:57;1.15;;;0.40;;
27566;SDS011;15006;48.584;9.186;2022-10-16T12:17:03;5.32;;;0.50;;
27566;SDS011;15006;48.584;9.186;2022-10-16T12:20:42;0.50;;;0.50;;
27566;SDS011;15006;48.584;9.186;2022-10-16T12:22:59;1.25;;;0.50;;
27566;SDS011;15006;48.584;9.186;2022-10-16T12:28:03;0.52;;;0.35;;
27566;SDS011;15006;48.584;9.186;2022-10-16T12:30:40;0.50;;;0.40;;
27566;SDS011;15006;48.584;9.186;2022-10-16T12:33:24;0.50;;;0.50;;
27566;SDS011;15006;48.584;9.186;2022-10-16T12:35:54;3.03;;;0.45;;
27566;SDS011;15006;48.584;9.186;2022-10-16T12:43:44;0.75;;;0.50;;
27566;SDS011;15006;48.584;9.186;2022-10-16T12:48:41;1.15;;;0.50;;
27566;SDS011;15006;48.584;9.186;2022-10-16T12:51:23;1.83;;;0.47;;
27566;SDS011;15006;48.584;9.186;2022-10-16T12:53:59;0.63;;;0.63;;
27566;SDS011;15006;48.584;9.186;2022-10-16T13:05:51;0.93;;;0.40;;
27566;SDS011;15006;48.584;9.186;2022-10-16T13:14:47;0.40;;;0.40;;
27566;SDS011;15006;48.584;9.186;2022-10-16T13:20:51;0.40;;;0.40;;
27566;SDS011;15006;48.584;9.186;2022-10-16T13:23:45;0.40;;;0.40;;
27566;SDS011;15006;48.584;9.186;2022-10-16T13:29:01;0.57;;;0.57;;
27566;SDS011;15006;48.584;9.186;2022-10-16T13:31:27;0.82;;;0.50;;
27566;SDS011;15006;48.584;9.186;2022-10-16T13:33:55;0.40;;;0.40;;
27566;SDS011;15006;48.584;9.186;2022-10-16T13:36:28;0.70;;;0.50;;
27566;SDS011;15006;48.584;9.186;2022-10-16T13:39:11;3.22;;;0.70;;
27566;SDS011;15006;48.584;9.186;2022-10-16T13:41:46;0.60;;;0.60;;
27566;SDS011;15006;48.584;9.186;2022-10-16T13:44:23;2.00;;;0.63;;
27566;SDS011;15006;48.584;9.186;2022-10-16T13:47:01;1.38;;;0.75;;
27566;SDS011;15006;48.584;9.186;2022-10-16T13:49:28;0.88;;;0.70;;
27566;SDS011;15006;48.584;9.186;2022-10-16T13:52:00;2.00;;;0.80;;
27566;SDS011;15006;48.584;9.186;2022-10-16T13:54:26;0.88;;;0.88;;
27566;SDS011;15006;48.584;9.186;2022-10-16T13:56:56;1.75;;;0.65;;
27566;SDS011;15006;48.584;9.186;2022-10-16T13:59:34;0.93;;;0.70;;
27566;SDS011;15006;48.584;9.186;2022-10-16T14:02:05;0.52;;;0.52;;
27566;SDS011;15006;48.584;9.186;2022-10-16T14:04:48;0.55;;;0.55;;
27566;SDS011;15006;48.584;9.186;2022-10-16T14:07:18;0.60;;;0.60;;
27566;SDS011;15006;48.584;9.186;2022-10-16T14:09:50;0.70;;;0.65;;
27566;SDS011;15006;48.584;9.186;2022-10-16T14:12:18;2.00;;;0.70;;
27566;SDS011;15006;48.584;9.186;2022-10-16T14:14:52;0.70;;;0.70;;
27566;SDS011;15006;48.584;9.186;2022-10-16T14:17:24;0.88;;;0.70;;
27566;SDS011;15006;48.584;9.186;2022-10-16T14:20:00;2.05;;;0.60;;
27566;SDS011;15006;48.584;9.186;2022-10-16T14:25:00;0.50;;;0.50;;
27566;SDS011;15006;48.584;9.186;2022-10-16T14:27:30;1.17;;;0.52;;
27566;SDS011;15006;48.584;9.186;2022-10-16T14:30:17;0.82;;;0.82;;
27566;SDS011;15006;48.584;9.186;2022-10-16T14:38:34;0.65;;;0.65;;
27566;SDS011;15006;48.584;9.186;2022-10-16T14:41:00;1.35;;;0.60;;
27566;SDS011;15006;48.584;9.186;2022-10-16T14:43:33;0.88;;;0.80;;
27566;SDS011;15006;48.584;9.186;2022-10-16T14:46:12;0.95;;;0.60;;
27566;SDS011;15006;48.584;9.186;2022-10-16T14:48:46;0.90;;;0.90;;
27566;SDS011;15006;48.584;9.186;2022-10-16T14:51:16;0.52;;;0.52;;
27566;SDS011;15006;48.584;9.186;2022-10-16T14:53:44;1.10;;;0.80;;
27566;SDS011;15006;48.584;9.186;2022-10-16T14:56:21;0.75;;;0.68;;
27566;SDS011;15006;48.584;9.186;2022-10-16T14:58:50;0.70;;;0.70;;
27566;SDS011;15006;48.584;9.186;2022-10-16T15:01:17;1.75;;;0.90;;
27566;SDS011;15006;48.584;9.186;2022-10-16T15:03:43;3.88;;;0.80;;
27566;SDS011;15006;48.584;9.186;2022-10-16T15:06:13;0.73;;;0.65;;
27566;SDS011;15006;48.584;9.186;2022-10-16T15:08:40;0.70;;;0.70;;
27566;SDS011;15006;48.584;9.186;2022-10-16T15:11:13;2.95;;;0.60;;
27566;SDS011;15006;48.584;9.186;2022-10-16T15:13:42;0.50;;;0.50;;
27566;SDS011;15006;48.584;9.186;2022-10-16T15:16:10;0.95;;;0.95;;
27566;SDS011;15006;48.584;9.186;2022-10-16T15:18:39;0.90;;;0.50;;
27566;SDS011;15006;48.584;9.186;2022-10-16T15:21:05;0.70;;;0.70;;
27566;SDS011;15006;48.584;9.186;2022-10-16T15:23:31;0.68;;;0.60;;
27566;SDS011;15006;48.584;9.186;2022-10-16T15:25:57;3.20;;;1.00;;
27566;SDS011;15006;48.584;9.186;2022-10-16T15:28:24;1.42;;;0.60;;
27566;SDS011;15006;48.584;9.186;2022-10-16T15:30:55;1.58;;;0.68;;
27566;SDS011;15006;48.584;9.186;2022-10-16T15:33:24;0.73;;;0.73;;
27566;SDS011;15006;48.584;9.186;2022-10-16T15:35:54;1.05;;;0.90;;
27566;SDS011;15006;48.584;9.186;2022-10-16T15:38:21;1.42;;;0.60;;
27566;SDS011;15006;48.584;9.186;2022-10-16T15:40:48;0.57;;;0.57;;
27566;SDS011;15006;48.584;9.186;2022-10-16T15:43:14;2.03;;;0.70;;
27566;SDS011;15006;48.584;9.186;2022-10-16T15:45:41;0.60;;;0.60;;
27566;SDS011;15006;48.584;9.186;2022-10-16T15:48:10;0.65;;;0.65;;
27566;SDS011;15006;48.584;9.186;2022-10-16T15:50:38;2.95;;;0.80;;
27566;SDS011;15006;48.584;9.186;2022-10-16T15:53:06;2.92;;;1.27;;
27566;SDS011;15006;48.584;9.186;2022-10-16T15:55:32;1.98;;;1.00;;
27566;SDS011;15006;48.584;9.186;2022-10-16T15:58:01;1.52;;;0.95;;
27566;SDS011;15006;48.584;9.186;2022-10-16T16:00:27;1.35;;;0.85;;
27566;SDS011;15006;48.584;9.186;2022-10-16T16:02:53;1.60;;;1.00;;
27566;SDS011;15006;48.584;9.186;2022-10-16T16:05:21;4.47;;;1.55;;
27566;SDS011;15006;48.584;9.186;2022-10-16T16:07:48;2.97;;;1.73;;
27566;SDS011;15006;48.584;9.186;2022-10-16T16:10:15;1.23;;;1.17;;
27566;SDS011;15006;48.584;9.186;2022-10-16T16:12:41;1.30;;;1.30;;
27566;SDS011;15006;48.584;9.186;2022-10-16T16:15:08;2.83;;;1.20;;
27566;SDS011;15006;48.584;9.186;2022-10-16T16:17:35;2.15;;;1.20;;
27566;SDS011;15006;48.584;9.186;2022-10-16T16:20:02;1.48;;;1.38;;
27566;SDS011;15006;48.584;9.186;2022-10-16T16:22:30;10.27;;;1.40;;
27566;SDS011;15006;48.584;9.186;2022-10-16T16:24:56;1.58;;;1.25;;
27566;SDS011;15006;48.584;9.186;2022-10-16T16:27:22;5.07;;;1.65;;
27566;SDS011;15006;48.584;9.186;2022-10-16T16:29:50;1.35;;;1.25;;
27566;SDS011;15006;48.584;9.186;2022-10-16T16:32:16;1.88;;;1.45;;
27566;SDS011;15006;48.584;9.186;2022-10-16T16:34:42;5.75;;;1.40;;
27566;SDS011;15006;48.584;9.186;2022-10-16T16:37:08;1.83;;;1.73;;
27566;SDS011;15006;48.584;9.186;2022-10-16T16:39:34;1.83;;;1.67;;
27566;SDS011;15006;48.584;9.186;2022-10-16T16:42:00;6.47;;;1.83;;
27566;SDS011;15006;48.584;9.186;2022-10-16T16:44:28;3.83;;;1.73;;
27566;SDS011;15006;48.584;9.186;2022-10-16T16:46:54;2.80;;;1.50;;
27566;SDS011;15006;48.584;9.186;2022-10-16T16:49:20;1.60;;;1.50;;
27566;SDS011;15006;48.584;9.186;2022-10-16T16:51:46;1.40;;;1.30;;
27566;SDS011;15006;48.584;9.186;2022-10-16T16:54:12;1.70;;;1.45;;
27566;SDS011;15006;48.584;9.186;2022-10-16T16:56:39;2.05;;;1.52;;
27566;SDS011;15006;48.584;9.186;2022-10-16T16:59:10;1.48;;;1.42;;
27566;SDS011;15006;48.584;9.186;2022-10-16T17:01:39;2.92;;;1.42;;
27566;SDS011;15006;48.584;9.186;2022-10-16T17:04:05;1.42;;;1.27;;
27566;SDS011;15006;48.584;9.186;2022-10-16T17:06:32;2.08;;;1.17;;
27566;SDS011;15006;48.584;9.186;2022-10-16T17:08:58;1.80;;;1.25;;
27566;SDS011;15006;48.584;9.186;2022-10-16T17:11:28;1.10;;;1.10;;
27566;SDS011;15006;48.584;9.186;2022-10-16T17:13:55;1.00;;;1.00;;
27566;SDS011;15006;48.584;9.186;2022-10-16T17:16:24;5.50;;;1.40;;
27566;SDS011;15006;48.584;9.186;2022-10-16T17:18:53;2.25;;;1.63;;
27566;SDS011;15006;48.584;9.186;2022-10-16T17:21:19;1.90;;;1.80;;
27566;SDS011;15006;48.584;9.186;2022-10-16T17:23:45;1.70;;;1.60;;
27566;SDS011;15006;48.584;9.186;2022-10-16T17:26:15;2.35;;;1.75;;
27566;SDS011;15006;48.584;9.186;2022-10-16T17:28:42;1.92;;;1.83;;
27566;SDS011;15006;48.584;9.186;2022-10-16T17:33:40;5.10;;;1.80;;
27566;SDS011;15006;48.584;9.186;2022-10-16T17:36:07;2.08;;;1.20;;